sensor_id;sensor_type;location;lat;lon;timestamp;P1;durP1;ratioP1;P2;durP2;ratioP2
43801;SDS011;29429;51.074;13.764;2022-12-20T00:01:30;56.88;;;24.80;;
43801;SDS011;29429;51.074;13.764;2022-12-20T00:04:00;65.00;;;25.52;;
43801;SDS011;29429;51.074;13.764;2022-12-20T00:06:32;60.45;;;26.42;;
43801;SDS011;29429;51.074;13.764;2022-12-20T00:09:02;61.05;;;26.77;;
43801;SDS011;29429;51.074;13.764;2022-12-20T00:11:32;61.97;;;27.80;;
43801;SDS011;29429;51.074;13.764;2022-12-20T00:13:59;58.05;;;25.50;;
43801;SDS011;29429;51.074;13.764;2022-12-20T00:16:27;59.75;;;27.42;;
43801;SDS011;29429;51.074;13.764;2022-12-20T00:18:59;62.28;;;28.25;;
43801;SDS011;29429;51.074;13.764;2022-12-20T00:21:30;56.38;;;26.63;;
43801;SDS011;29429;51.074;13.764;2022-12-20T00:23:58;63.03;;;28.00;;
43801;SDS011;29429;51.074;13.764;2022-12-20T00:26:27;59.72;;;25.15;;
43801;SDS011;29429;51.074;13.764;2022-12-20T00:28:57;60.92;;;26.08;;
43801;SDS011;29429;51.074;13.764;2022-12-20T00:31:27;58.63;;;25.75;;
43801;SDS011;29429;51.074;13.764;2022-12-20T00:33:56;58.97;;;25.95;;
43801;SDS011;29429;51.074;13.764;2022-12-20T00:36:27;54.10;;;24.55;;
43801;SDS011;29429;51.074;13.764;2022-12-20T00:38:57;57.75;;;26.02;;
43801;SDS011;29429;51.074;13.764;2022-12-20T00:41:26;55.80;;;25.45;;
43801;SDS011;29429;51.074;13.764;2022-12-20T00:43:57;58.85;;;26.73;;
43801;SDS011;29429;51.074;13.764;2022-12-20T00:46:24;59.88;;;26.15;;
43801;SDS011;29429;51.074;13.764;2022-12-20T00:48:52;55.28;;;27.02;;
43801;SDS011;29429;51.074;13.764;2022-12-20T00:51:23;59.40;;;26.83;;
43801;SDS011;29429;51.074;13.764;2022-12-20T00:53:53;59.55;;;26.17;;
43801;SDS011;29429;51.074;13.764;2022-12-20T00:56:21;56.88;;;26.00;;
43801;SDS011;29429;51.074;13.764;2022-12-20T00:58:51;59.13;;;27.23;;
43801;SDS011;29429;51.074;13.764;2022-12-20T01:01:23;52.42;;;25.38;;
43801;SDS011;29429;51.074;13.764;2022-12-20T01:03:53;53.88;;;25.17;;
43801;SDS011;29429;51.074;13.764;2022-12-20T01:06:21;51.85;;;24.55;;
43801;SDS011;29429;51.074;13.764;2022-12-20T01:08:49;56.33;;;25.70;;
43801;SDS011;29429;51.074;13.764;2022-12-20T01:11:19;53.60;;;24.75;;
43801;SDS011;29429;51.074;13.764;2022-12-20T01:13:53;55.72;;;25.40;;
43801;SDS011;29429;51.074;13.764;2022-12-20T01:19:03;53.65;;;24.23;;
43801;SDS011;29429;51.074;13.764;2022-12-20T01:21:30;54.28;;;25.80;;
43801;SDS011;29429;51.074;13.764;2022-12-20T01:23:58;51.95;;;24.88;;
43801;SDS011;29429;51.074;13.764;2022-12-20T01:26:26;50.90;;;24.27;;
43801;SDS011;29429;51.074;13.764;2022-12-20T01:28:56;48.67;;;22.67;;
43801;SDS011;29429;51.074;13.764;2022-12-20T01:31:25;55.95;;;25.42;;
43801;SDS011;29429;51.074;13.764;2022-12-20T01:33:55;57.15;;;25.50;;
43801;SDS011;29429;51.074;13.764;2022-12-20T01:36:24;53.13;;;23.77;;
43801;SDS011;29429;51.074;13.764;2022-12-20T01:39:01;51.50;;;24.85;;
43801;SDS011;29429;51.074;13.764;2022-12-20T01:41:39;53.20;;;25.35;;
43801;SDS011;29429;51.074;13.764;2022-12-20T01:46:45;54.15;;;24.90;;
43801;SDS011;29429;51.074;13.764;2022-12-20T01:49:21;52.22;;;23.95;;
43801;SDS011;29429;51.074;13.764;2022-12-20T01:54:35;58.00;;;25.65;;
43801;SDS011;29429;51.074;13.764;2022-12-20T01:57:44;54.58;;;24.88;;
43801;SDS011;29429;51.074;13.764;2022-12-20T02:00:36;54.25;;;25.60;;
43801;SDS011;29429;51.074;13.764;2022-12-20T02:03:05;55.63;;;24.98;;
43801;SDS011;29429;51.074;13.764;2022-12-20T02:05:37;51.92;;;25.50;;
43801;SDS011;29429;51.074;13.764;2022-12-20T02:08:08;56.30;;;25.60;;
43801;SDS011;29429;51.074;13.764;2022-12-20T02:10:43;53.22;;;24.40;;
43801;SDS011;29429;51.074;13.764;2022-12-20T02:13:32;57.38;;;24.50;;
43801;SDS011;29429;51.074;13.764;2022-12-20T02:16:09;52.83;;;24.60;;
43801;SDS011;29429;51.074;13.764;2022-12-20T02:18:51;54.45;;;24.67;;
43801;SDS011;29429;51.074;13.764;2022-12-20T02:21:54;53.58;;;24.63;;
43801;SDS011;29429;51.074;13.764;2022-12-20T02:30:21;47.15;;;23.88;;
43801;SDS011;29429;51.074;13.764;2022-12-20T02:32:59;56.67;;;24.23;;
43801;SDS011;29429;51.074;13.764;2022-12-20T02:35:35;57.72;;;26.27;;
43801;SDS011;29429;51.074;13.764;2022-12-20T02:43:44;52.95;;;23.40;;
43801;SDS011;29429;51.074;13.764;2022-12-20T02:46:36;54.47;;;24.13;;
43801;SDS011;29429;51.074;13.764;2022-12-20T02:49:06;51.90;;;24.05;;
43801;SDS011;29429;51.074;13.764;2022-12-20T02:51:40;50.45;;;24.17;;
43801;SDS011;29429;51.074;13.764;2022-12-20T02:54:11;50.72;;;23.88;;
43801;SDS011;29429;51.074;13.764;2022-12-20T02:56:46;50.40;;;23.85;;
43801;SDS011;29429;51.074;13.764;2022-12-20T02:59:24;49.47;;;23.13;;
43801;SDS011;29429;51.074;13.764;2022-12-20T03:01:57;49.83;;;24.73;;
43801;SDS011;29429;51.074;13.764;2022-12-20T03:04:26;53.67;;;24.67;;
43801;SDS011;29429;51.074;13.764;2022-12-20T03:06:57;48.03;;;23.52;;
43801;SDS011;29429;51.074;13.764;2022-12-20T03:09:29;49.88;;;24.10;;
43801;SDS011;29429;51.074;13.764;2022-12-20T03:11:59;51.65;;;25.27;;
43801;SDS011;29429;51.074;13.764;2022-12-20T03:14:28;50.00;;;23.75;;
43801;SDS011;29429;51.074;13.764;2022-12-20T03:16:57;49.88;;;24.05;;
43801;SDS011;29429;51.074;13.764;2022-12-20T03:19:25;48.30;;;23.02;;
43801;SDS011;29429;51.074;13.764;2022-12-20T03:21:52;55.70;;;25.10;;
43801;SDS011;29429;51.074;13.764;2022-12-20T03:24:19;54.15;;;25.10;;
43801;SDS011;29429;51.074;13.764;2022-12-20T03:26:47;55.85;;;25.33;;
43801;SDS011;29429;51.074;13.764;2022-12-20T03:29:17;55.40;;;24.85;;
43801;SDS011;29429;51.074;13.764;2022-12-20T03:31:44;52.00;;;23.77;;
43801;SDS011;29429;51.074;13.764;2022-12-20T03:34:11;46.70;;;22.85;;
43801;SDS011;29429;51.074;13.764;2022-12-20T03:36:38;56.42;;;24.17;;
43801;SDS011;29429;51.074;13.764;2022-12-20T03:39:05;55.63;;;24.00;;
43801;SDS011;29429;51.074;13.764;2022-12-20T03:41:36;48.95;;;22.95;;
43801;SDS011;29429;51.074;13.764;2022-12-20T03:44:04;51.67;;;23.55;;
43801;SDS011;29429;51.074;13.764;2022-12-20T03:46:32;54.13;;;23.98;;
43801;SDS011;29429;51.074;13.764;2022-12-20T03:48:59;48.90;;;22.60;;
43801;SDS011;29429;51.074;13.764;2022-12-20T03:51:27;48.53;;;23.52;;
43801;SDS011;29429;51.074;13.764;2022-12-20T03:53:55;50.70;;;23.98;;
43801;SDS011;29429;51.074;13.764;2022-12-20T03:56:33;51.00;;;23.77;;
43801;SDS011;29429;51.074;13.764;2022-12-20T03:59:01;54.08;;;23.73;;
43801;SDS011;29429;51.074;13.764;2022-12-20T04:01:29;50.88;;;23.17;;
43801;SDS011;29429;51.074;13.764;2022-12-20T04:03:57;48.17;;;23.20;;
43801;SDS011;29429;51.074;13.764;2022-12-20T04:06:25;50.30;;;24.55;;
43801;SDS011;29429;51.074;13.764;2022-12-20T04:08:52;53.70;;;25.27;;
43801;SDS011;29429;51.074;13.764;2022-12-20T04:11:25;49.67;;;24.10;;
43801;SDS011;29429;51.074;13.764;2022-12-20T04:14:04;52.97;;;24.55;;
43801;SDS011;29429;51.074;13.764;2022-12-20T04:16:32;52.67;;;24.08;;
43801;SDS011;29429;51.074;13.764;2022-12-20T04:19:00;50.58;;;23.35;;
43801;SDS011;29429;51.074;13.764;2022-12-20T04:21:33;50.10;;;23.58;;
43801;SDS011;29429;51.074;13.764;2022-12-20T04:24:03;50.63;;;22.65;;
43801;SDS011;29429;51.074;13.764;2022-12-20T04:26:44;51.40;;;23.23;;
43801;SDS011;29429;51.074;13.764;2022-12-20T04:29:12;49.10;;;23.30;;
43801;SDS011;29429;51.074;13.764;2022-12-20T04:31:40;50.53;;;24.02;;
43801;SDS011;29429;51.074;13.764;2022-12-20T04:34:08;50.45;;;24.38;;
43801;SDS011;29429;51.074;13.764;2022-12-20T04:36:35;54.47;;;25.15;;
43801;SDS011;29429;51.074;13.764;2022-12-20T04:39:06;52.65;;;24.35;;
43801;SDS011;29429;51.074;13.764;2022-12-20T04:41:42;47.95;;;23.17;;
43801;SDS011;29429;51.074;13.764;2022-12-20T04:44:11;51.53;;;24.60;;
43801;SDS011;29429;51.074;13.764;2022-12-20T04:46:38;50.15;;;23.20;;
43801;SDS011;29429;51.074;13.764;2022-12-20T04:49:10;51.47;;;23.63;;
43801;SDS011;29429;51.074;13.764;2022-12-20T04:51:41;52.20;;;24.30;;
43801;SDS011;29429;51.074;13.764;2022-12-20T04:54:10;47.88;;;24.15;;
43801;SDS011;29429;51.074;13.764;2022-12-20T04:56:43;50.35;;;25.58;;
43801;SDS011;29429;51.074;13.764;2022-12-20T04:59:15;51.40;;;23.83;;
43801;SDS011;29429;51.074;13.764;2022-12-20T05:01:46;49.90;;;23.83;;
43801;SDS011;29429;51.074;13.764;2022-12-20T05:04:24;48.40;;;23.45;;
43801;SDS011;29429;51.074;13.764;2022-12-20T05:06:57;50.25;;;23.70;;
43801;SDS011;29429;51.074;13.764;2022-12-20T05:09:24;50.45;;;24.17;;
43801;SDS011;29429;51.074;13.764;2022-12-20T05:11:54;52.38;;;24.35;;
43801;SDS011;29429;51.074;13.764;2022-12-20T05:14:21;46.97;;;23.38;;
43801;SDS011;29429;51.074;13.764;2022-12-20T05:16:48;48.17;;;24.05;;
43801;SDS011;29429;51.074;13.764;2022-12-20T05:19:16;50.28;;;23.52;;
43801;SDS011;29429;51.074;13.764;2022-12-20T05:21:42;49.30;;;22.98;;
43801;SDS011;29429;51.074;13.764;2022-12-20T05:24:29;47.17;;;22.05;;
43801;SDS011;29429;51.074;13.764;2022-12-20T05:27:41;47.15;;;23.13;;
43801;SDS011;29429;51.074;13.764;2022-12-20T05:30:09;45.97;;;22.13;;
43801;SDS011;29429;51.074;13.764;2022-12-20T05:32:37;51.67;;;22.42;;
43801;SDS011;29429;51.074;13.764;2022-12-20T05:35:04;44.10;;;22.13;;
43801;SDS011;29429;51.074;13.764;2022-12-20T05:37:32;45.97;;;21.88;;
43801;SDS011;29429;51.074;13.764;2022-12-20T05:40:07;45.58;;;22.60;;
43801;SDS011;29429;51.074;13.764;2022-12-20T05:42:35;47.38;;;22.08;;
43801;SDS011;29429;51.074;13.764;2022-12-20T05:45:03;45.55;;;21.52;;
43801;SDS011;29429;51.074;13.764;2022-12-20T05:47:40;45.20;;;22.10;;
43801;SDS011;29429;51.074;13.764;2022-12-20T05:50:09;44.47;;;21.52;;
43801;SDS011;29429;51.074;13.764;2022-12-20T05:53:04;42.67;;;21.40;;
43801;SDS011;29429;51.074;13.764;2022-12-20T05:55:49;49.00;;;22.67;;
43801;SDS011;29429;51.074;13.764;2022-12-20T05:58:19;46.17;;;22.70;;
43801;SDS011;29429;51.074;13.764;2022-12-20T06:00:53;41.22;;;19.88;;
43801;SDS011;29429;51.074;13.764;2022-12-20T06:03:23;44.58;;;22.25;;
43801;SDS011;29429;51.074;13.764;2022-12-20T06:05:50;44.63;;;21.75;;
43801;SDS011;29429;51.074;13.764;2022-12-20T06:08:24;47.70;;;22.10;;
43801;SDS011;29429;51.074;13.764;2022-12-20T06:10:52;41.35;;;21.50;;
43801;SDS011;29429;51.074;13.764;2022-12-20T06:13:21;41.92;;;21.17;;
43801;SDS011;29429;51.074;13.764;2022-12-20T06:15:51;44.78;;;20.58;;
43801;SDS011;29429;51.074;13.764;2022-12-20T06:18:19;44.95;;;21.30;;
43801;SDS011;29429;51.074;13.764;2022-12-20T06:20:50;42.25;;;20.33;;
43801;SDS011;29429;51.074;13.764;2022-12-20T06:23:21;39.88;;;20.50;;
43801;SDS011;29429;51.074;13.764;2022-12-20T06:26:09;40.83;;;20.50;;
43801;SDS011;29429;51.074;13.764;2022-12-20T06:31:12;37.40;;;19.08;;
43801;SDS011;29429;51.074;13.764;2022-12-20T06:33:49;41.88;;;21.65;;
43801;SDS011;29429;51.074;13.764;2022-12-20T06:36:19;41.60;;;20.42;;
43801;SDS011;29429;51.074;13.764;2022-12-20T06:38:47;42.38;;;20.95;;
43801;SDS011;29429;51.074;13.764;2022-12-20T06:41:14;38.58;;;20.25;;
43801;SDS011;29429;51.074;13.764;2022-12-20T06:43:41;40.83;;;20.48;;
43801;SDS011;29429;51.074;13.764;2022-12-20T06:46:11;39.95;;;19.23;;
43801;SDS011;29429;51.074;13.764;2022-12-20T06:48:38;43.15;;;20.67;;
43801;SDS011;29429;51.074;13.764;2022-12-20T06:51:11;42.53;;;21.05;;
43801;SDS011;29429;51.074;13.764;2022-12-20T06:53:43;40.75;;;20.98;;
43801;SDS011;29429;51.074;13.764;2022-12-20T06:56:10;45.05;;;22.55;;
43801;SDS011;29429;51.074;13.764;2022-12-20T06:58:46;39.03;;;19.60;;
43801;SDS011;29429;51.074;13.764;2022-12-20T07:01:32;41.85;;;21.77;;
43801;SDS011;29429;51.074;13.764;2022-12-20T07:03:59;43.63;;;21.05;;
43801;SDS011;29429;51.074;13.764;2022-12-20T07:06:26;38.92;;;19.63;;
43801;SDS011;29429;51.074;13.764;2022-12-20T07:08:54;42.28;;;20.30;;
43801;SDS011;29429;51.074;13.764;2022-12-20T07:11:21;38.88;;;19.30;;
43801;SDS011;29429;51.074;13.764;2022-12-20T07:13:53;40.30;;;19.92;;
43801;SDS011;29429;51.074;13.764;2022-12-20T07:16:22;39.42;;;20.52;;
43801;SDS011;29429;51.074;13.764;2022-12-20T07:18:50;43.80;;;21.90;;
43801;SDS011;29429;51.074;13.764;2022-12-20T07:21:18;38.67;;;20.17;;
43801;SDS011;29429;51.074;13.764;2022-12-20T07:23:46;44.40;;;20.80;;
43801;SDS011;29429;51.074;13.764;2022-12-20T07:26:13;42.00;;;20.95;;
43801;SDS011;29429;51.074;13.764;2022-12-20T07:28:41;40.20;;;20.58;;
43801;SDS011;29429;51.074;13.764;2022-12-20T07:31:08;43.85;;;22.27;;
43801;SDS011;29429;51.074;13.764;2022-12-20T07:33:35;39.60;;;19.83;;
43801;SDS011;29429;51.074;13.764;2022-12-20T07:36:05;44.33;;;23.10;;
43801;SDS011;29429;51.074;13.764;2022-12-20T07:38:36;44.60;;;22.25;;
43801;SDS011;29429;51.074;13.764;2022-12-20T07:41:06;46.22;;;22.77;;
43801;SDS011;29429;51.074;13.764;2022-12-20T07:43:40;44.38;;;21.48;;
43801;SDS011;29429;51.074;13.764;2022-12-20T07:46:09;47.03;;;22.05;;
43801;SDS011;29429;51.074;13.764;2022-12-20T07:48:43;43.85;;;22.90;;
43801;SDS011;29429;51.074;13.764;2022-12-20T07:51:12;47.58;;;23.42;;
43801;SDS011;29429;51.074;13.764;2022-12-20T07:53:58;45.60;;;21.33;;
43801;SDS011;29429;51.074;13.764;2022-12-20T07:56:42;45.33;;;22.20;;
43801;SDS011;29429;51.074;13.764;2022-12-20T07:59:16;45.30;;;23.38;;
43801;SDS011;29429;51.074;13.764;2022-12-20T08:01:49;48.03;;;22.85;;
43801;SDS011;29429;51.074;13.764;2022-12-20T08:04:18;45.33;;;22.67;;
43801;SDS011;29429;51.074;13.764;2022-12-20T08:06:50;44.33;;;23.13;;
43801;SDS011;29429;51.074;13.764;2022-12-20T08:12:15;50.38;;;24.55;;
43801;SDS011;29429;51.074;13.764;2022-12-20T08:15:01;45.83;;;23.88;;
43801;SDS011;29429;51.074;13.764;2022-12-20T08:17:28;45.13;;;21.95;;
43801;SDS011;29429;51.074;13.764;2022-12-20T08:19:55;50.47;;;23.30;;
43801;SDS011;29429;51.074;13.764;2022-12-20T08:22:22;51.85;;;24.30;;
43801;SDS011;29429;51.074;13.764;2022-12-20T08:24:49;51.42;;;25.30;;
43801;SDS011;29429;51.074;13.764;2022-12-20T08:27:16;53.83;;;25.65;;
43801;SDS011;29429;51.074;13.764;2022-12-20T08:29:43;48.20;;;23.95;;
43801;SDS011;29429;51.074;13.764;2022-12-20T08:32:10;50.92;;;25.48;;
43801;SDS011;29429;51.074;13.764;2022-12-20T08:34:39;49.10;;;23.58;;
43801;SDS011;29429;51.074;13.764;2022-12-20T08:37:06;47.90;;;24.27;;
43801;SDS011;29429;51.074;13.764;2022-12-20T08:39:40;51.20;;;25.08;;
43801;SDS011;29429;51.074;13.764;2022-12-20T08:42:07;47.83;;;24.17;;
43801;SDS011;29429;51.074;13.764;2022-12-20T08:44:37;49.20;;;24.48;;
43801;SDS011;29429;51.074;13.764;2022-12-20T08:47:06;53.47;;;23.67;;
43801;SDS011;29429;51.074;13.764;2022-12-20T08:49:33;52.55;;;25.58;;
43801;SDS011;29429;51.074;13.764;2022-12-20T08:52:00;47.22;;;24.05;;
43801;SDS011;29429;51.074;13.764;2022-12-20T08:54:27;51.83;;;23.98;;
43801;SDS011;29429;51.074;13.764;2022-12-20T08:56:54;51.90;;;25.10;;
43801;SDS011;29429;51.074;13.764;2022-12-20T08:59:25;49.78;;;23.88;;
43801;SDS011;29429;51.074;13.764;2022-12-20T09:01:52;51.08;;;23.80;;
43801;SDS011;29429;51.074;13.764;2022-12-20T09:04:20;52.63;;;24.45;;
43801;SDS011;29429;51.074;13.764;2022-12-20T09:06:54;47.45;;;23.40;;
43801;SDS011;29429;51.074;13.764;2022-12-20T09:09:22;51.63;;;24.40;;
43801;SDS011;29429;51.074;13.764;2022-12-20T09:11:49;48.85;;;23.90;;
43801;SDS011;29429;51.074;13.764;2022-12-20T09:14:19;51.22;;;25.17;;
43801;SDS011;29429;51.074;13.764;2022-12-20T09:16:56;48.47;;;22.02;;
43801;SDS011;29429;51.074;13.764;2022-12-20T09:19:23;51.17;;;23.92;;
43801;SDS011;29429;51.074;13.764;2022-12-20T09:21:50;47.42;;;21.90;;
43801;SDS011;29429;51.074;13.764;2022-12-20T09:24:17;49.38;;;24.60;;
43801;SDS011;29429;51.074;13.764;2022-12-20T09:26:44;49.78;;;24.00;;
43801;SDS011;29429;51.074;13.764;2022-12-20T09:29:15;45.47;;;22.23;;
43801;SDS011;29429;51.074;13.764;2022-12-20T09:31:52;49.53;;;24.23;;
43801;SDS011;29429;51.074;13.764;2022-12-20T09:34:19;51.90;;;24.13;;
43801;SDS011;29429;51.074;13.764;2022-12-20T09:36:46;64.60;;;26.33;;
43801;SDS011;29429;51.074;13.764;2022-12-20T09:39:13;49.10;;;23.00;;
43801;SDS011;29429;51.074;13.764;2022-12-20T09:41:40;46.60;;;22.88;;
43801;SDS011;29429;51.074;13.764;2022-12-20T09:44:11;46.53;;;23.15;;
43801;SDS011;29429;51.074;13.764;2022-12-20T09:46:55;50.45;;;24.45;;
43801;SDS011;29429;51.074;13.764;2022-12-20T09:49:50;50.38;;;23.75;;
43801;SDS011;29429;51.074;13.764;2022-12-20T09:52:30;48.83;;;22.95;;
43801;SDS011;29429;51.074;13.764;2022-12-20T09:58:02;50.72;;;23.58;;
43801;SDS011;29429;51.074;13.764;2022-12-20T10:00:48;53.75;;;24.45;;
43801;SDS011;29429;51.074;13.764;2022-12-20T10:03:31;54.33;;;25.05;;
43801;SDS011;29429;51.074;13.764;2022-12-20T10:06:21;51.80;;;24.30;;
43801;SDS011;29429;51.074;13.764;2022-12-20T10:09:04;47.92;;;23.20;;
43801;SDS011;29429;51.074;13.764;2022-12-20T10:23:32;50.58;;;24.75;;
43801;SDS011;29429;51.074;13.764;2022-12-20T10:26:22;46.58;;;22.67;;
43801;SDS011;29429;51.074;13.764;2022-12-20T10:28:50;45.05;;;23.02;;
43801;SDS011;29429;51.074;13.764;2022-12-20T10:31:20;46.67;;;22.25;;
43801;SDS011;29429;51.074;13.764;2022-12-20T10:33:47;50.10;;;24.98;;
43801;SDS011;29429;51.074;13.764;2022-12-20T10:39:00;50.17;;;23.45;;
43801;SDS011;29429;51.074;13.764;2022-12-20T10:44:25;47.97;;;23.77;;
43801;SDS011;29429;51.074;13.764;2022-12-20T10:46:58;50.47;;;24.73;;
43801;SDS011;29429;51.074;13.764;2022-12-20T10:49:35;50.67;;;24.65;;
43801;SDS011;29429;51.074;13.764;2022-12-20T10:52:20;51.13;;;24.00;;
43801;SDS011;29429;51.074;13.764;2022-12-20T10:55:38;50.15;;;24.30;;
43801;SDS011;29429;51.074;13.764;2022-12-20T10:58:42;49.53;;;25.38;;
43801;SDS011;29429;51.074;13.764;2022-12-20T11:01:31;51.22;;;25.27;;
43801;SDS011;29429;51.074;13.764;2022-12-20T11:04:25;52.35;;;25.13;;
43801;SDS011;29429;51.074;13.764;2022-12-20T11:07:25;49.17;;;25.05;;
43801;SDS011;29429;51.074;13.764;2022-12-20T11:10:03;49.53;;;24.40;;
43801;SDS011;29429;51.074;13.764;2022-12-20T11:13:10;52.92;;;24.52;;
43801;SDS011;29429;51.074;13.764;2022-12-20T11:16:00;54.63;;;24.92;;
43801;SDS011;29429;51.074;13.764;2022-12-20T11:18:59;54.13;;;25.98;;
43801;SDS011;29429;51.074;13.764;2022-12-20T11:25:51;48.35;;;23.77;;
43801;SDS011;29429;51.074;13.764;2022-12-20T11:31:46;54.15;;;25.65;;
43801;SDS011;29429;51.074;13.764;2022-12-20T11:37:57;52.83;;;25.20;;
43801;SDS011;29429;51.074;13.764;2022-12-20T11:47:00;54.70;;;25.10;;
43801;SDS011;29429;51.074;13.764;2022-12-20T11:52:46;48.40;;;24.33;;
43801;SDS011;29429;51.074;13.764;2022-12-20T11:55:25;50.63;;;24.75;;
43801;SDS011;29429;51.074;13.764;2022-12-20T11:58:03;56.25;;;25.70;;
43801;SDS011;29429;51.074;13.764;2022-12-20T12:01:19;51.67;;;25.45;;
43801;SDS011;29429;51.074;13.764;2022-12-20T12:04:00;48.13;;;24.25;;
43801;SDS011;29429;51.074;13.764;2022-12-20T12:06:52;49.78;;;24.70;;
43801;SDS011;29429;51.074;13.764;2022-12-20T12:18:18;49.78;;;24.63;;
43801;SDS011;29429;51.074;13.764;2022-12-20T12:20:55;54.45;;;26.15;;
43801;SDS011;29429;51.074;13.764;2022-12-20T12:26:32;53.15;;;25.70;;
43801;SDS011;29429;51.074;13.764;2022-12-20T12:29:17;55.45;;;26.38;;
43801;SDS011;29429;51.074;13.764;2022-12-20T12:40:56;55.13;;;25.50;;
43801;SDS011;29429;51.074;13.764;2022-12-20T12:44:29;54.40;;;24.65;;
43801;SDS011;29429;51.074;13.764;2022-12-20T12:46:50;58.25;;;25.58;;
43801;SDS011;29429;51.074;13.764;2022-12-20T12:49:26;56.08;;;26.08;;
43801;SDS011;29429;51.074;13.764;2022-12-20T12:52:03;54.45;;;24.73;;
43801;SDS011;29429;51.074;13.764;2022-12-20T12:54:36;58.63;;;26.27;;
43801;SDS011;29429;51.074;13.764;2022-12-20T12:59:49;52.65;;;26.52;;
43801;SDS011;29429;51.074;13.764;2022-12-20T13:13:24;56.50;;;26.05;;
43801;SDS011;29429;51.074;13.764;2022-12-20T13:16:28;57.78;;;26.60;;
43801;SDS011;29429;51.074;13.764;2022-12-20T13:19:50;52.47;;;25.42;;
43801;SDS011;29429;51.074;13.764;2022-12-20T13:26:55;62.05;;;26.30;;
43801;SDS011;29429;51.074;13.764;2022-12-20T13:33:13;57.33;;;26.63;;
43801;SDS011;29429;51.074;13.764;2022-12-20T13:36:30;55.58;;;26.63;;
43801;SDS011;29429;51.074;13.764;2022-12-20T13:39:32;56.80;;;26.75;;
43801;SDS011;29429;51.074;13.764;2022-12-20T13:42:29;58.65;;;27.60;;
43801;SDS011;29429;51.074;13.764;2022-12-20T13:45:21;55.30;;;26.08;;
43801;SDS011;29429;51.074;13.764;2022-12-20T13:49:14;58.30;;;27.25;;
43801;SDS011;29429;51.074;13.764;2022-12-20T13:51:29;60.70;;;26.90;;
43801;SDS011;29429;51.074;13.764;2022-12-20T13:53:57;58.60;;;26.13;;
43801;SDS011;29429;51.074;13.764;2022-12-20T13:56:45;58.63;;;28.30;;
43801;SDS011;29429;51.074;13.764;2022-12-20T13:59:30;55.58;;;27.00;;
43801;SDS011;29429;51.074;13.764;2022-12-20T14:02:01;54.55;;;26.83;;
43801;SDS011;29429;51.074;13.764;2022-12-20T14:04:43;54.15;;;25.63;;
43801;SDS011;29429;51.074;13.764;2022-12-20T14:07:24;60.42;;;25.48;;
43801;SDS011;29429;51.074;13.764;2022-12-20T14:09:56;57.17;;;26.70;;
43801;SDS011;29429;51.074;13.764;2022-12-20T14:12:27;53.90;;;25.25;;
43801;SDS011;29429;51.074;13.764;2022-12-20T14:17:50;59.67;;;25.42;;
43801;SDS011;29429;51.074;13.764;2022-12-20T14:20:38;55.20;;;24.92;;
43801;SDS011;29429;51.074;13.764;2022-12-20T14:23:15;59.25;;;25.98;;
43801;SDS011;29429;51.074;13.764;2022-12-20T14:25:55;57.38;;;27.23;;
43801;SDS011;29429;51.074;13.764;2022-12-20T14:28:30;57.38;;;26.00;;
43801;SDS011;29429;51.074;13.764;2022-12-20T14:31:28;61.47;;;26.67;;
43801;SDS011;29429;51.074;13.764;2022-12-20T14:36:32;56.13;;;25.17;;
43801;SDS011;29429;51.074;13.764;2022-12-20T14:38:59;53.47;;;24.98;;
43801;SDS011;29429;51.074;13.764;2022-12-20T14:44:14;55.58;;;25.17;;
43801;SDS011;29429;51.074;13.764;2022-12-20T14:46:49;58.30;;;25.40;;
43801;SDS011;29429;51.074;13.764;2022-12-20T14:49:46;58.95;;;24.90;;
43801;SDS011;29429;51.074;13.764;2022-12-20T14:52:31;58.22;;;26.33;;
43801;SDS011;29429;51.074;13.764;2022-12-20T14:55:05;56.72;;;25.08;;
43801;SDS011;29429;51.074;13.764;2022-12-20T14:57:43;60.35;;;26.48;;
43801;SDS011;29429;51.074;13.764;2022-12-20T15:10:39;50.55;;;25.08;;
43801;SDS011;29429;51.074;13.764;2022-12-20T15:13:23;53.22;;;23.73;;
43801;SDS011;29429;51.074;13.764;2022-12-20T15:15:54;59.53;;;27.75;;
43801;SDS011;29429;51.074;13.764;2022-12-20T15:18:25;58.63;;;26.50;;
43801;SDS011;29429;51.074;13.764;2022-12-20T15:23:31;56.92;;;25.90;;
43801;SDS011;29429;51.074;13.764;2022-12-20T15:25:59;66.63;;;27.60;;
43801;SDS011;29429;51.074;13.764;2022-12-20T15:28:26;55.20;;;26.63;;
43801;SDS011;29429;51.074;13.764;2022-12-20T15:30:54;54.78;;;25.73;;
43801;SDS011;29429;51.074;13.764;2022-12-20T15:33:25;62.25;;;26.65;;
43801;SDS011;29429;51.074;13.764;2022-12-20T15:35:56;58.45;;;26.23;;
43801;SDS011;29429;51.074;13.764;2022-12-20T15:38:24;60.40;;;26.75;;
43801;SDS011;29429;51.074;13.764;2022-12-20T15:41:23;57.78;;;27.00;;
43801;SDS011;29429;51.074;13.764;2022-12-20T15:43:56;56.60;;;26.80;;
43801;SDS011;29429;51.074;13.764;2022-12-20T15:46:28;61.97;;;27.67;;
43801;SDS011;29429;51.074;13.764;2022-12-20T15:48:57;56.22;;;26.65;;
43801;SDS011;29429;51.074;13.764;2022-12-20T15:53:59;59.92;;;26.63;;
43801;SDS011;29429;51.074;13.764;2022-12-20T15:56:32;59.45;;;25.83;;
43801;SDS011;29429;51.074;13.764;2022-12-20T15:58:59;60.20;;;27.75;;
43801;SDS011;29429;51.074;13.764;2022-12-20T16:01:43;53.15;;;25.17;;
43801;SDS011;29429;51.074;13.764;2022-12-20T16:04:12;59.47;;;26.48;;
43801;SDS011;29429;51.074;13.764;2022-12-20T16:06:43;56.35;;;26.02;;
43801;SDS011;29429;51.074;13.764;2022-12-20T16:09:13;59.42;;;25.15;;
43801;SDS011;29429;51.074;13.764;2022-12-20T16:11:41;56.60;;;25.30;;
43801;SDS011;29429;51.074;13.764;2022-12-20T16:14:12;60.47;;;27.55;;
43801;SDS011;29429;51.074;13.764;2022-12-20T16:16:49;56.67;;;26.23;;
43801;SDS011;29429;51.074;13.764;2022-12-20T16:19:16;56.50;;;26.73;;
43801;SDS011;29429;51.074;13.764;2022-12-20T16:21:48;59.47;;;26.60;;
43801;SDS011;29429;51.074;13.764;2022-12-20T16:24:18;62.67;;;28.20;;
43801;SDS011;29429;51.074;13.764;2022-12-20T16:26:49;57.03;;;25.88;;
43801;SDS011;29429;51.074;13.764;2022-12-20T16:29:16;56.22;;;25.65;;
43801;SDS011;29429;51.074;13.764;2022-12-20T16:31:43;62.50;;;26.58;;
43801;SDS011;29429;51.074;13.764;2022-12-20T16:34:12;59.15;;;25.63;;
43801;SDS011;29429;51.074;13.764;2022-12-20T16:36:43;59.25;;;27.05;;
43801;SDS011;29429;51.074;13.764;2022-12-20T16:39:11;58.22;;;27.05;;
43801;SDS011;29429;51.074;13.764;2022-12-20T16:41:39;57.80;;;27.27;;
43801;SDS011;29429;51.074;13.764;2022-12-20T16:44:10;58.28;;;26.27;;
43801;SDS011;29429;51.074;13.764;2022-12-20T16:46:42;56.15;;;24.90;;
43801;SDS011;29429;51.074;13.764;2022-12-20T16:49:10;57.83;;;25.85;;
43801;SDS011;29429;51.074;13.764;2022-12-20T16:51:45;51.05;;;25.33;;
43801;SDS011;29429;51.074;13.764;2022-12-20T16:54:18;53.63;;;25.13;;
43801;SDS011;29429;51.074;13.764;2022-12-20T16:56:50;56.70;;;26.55;;
43801;SDS011;29429;51.074;13.764;2022-12-20T16:59:21;62.70;;;27.75;;
43801;SDS011;29429;51.074;13.764;2022-12-20T17:01:50;55.58;;;25.98;;